EW7060 Weather Reports


Display with metric or nautical units.
time (UTC)temp
F
wind
direction
speed
MPH
gust
MPH
rain 1hr
in
rain 24hr
in
rain mn
in
humidity
%
barometer
mb
20190626042521 69 0.0 0.0 0.00 0.60 0.00 74 1015.3
20190626040055 70 0.0 0.0 0.00 0.60 0.00 72 1015.0
20190626035050 70 0.0 0.0 0.00 0.60 0.60 72 1015.1
20190626034046 70 0.0 0.0 0.00 0.60 0.60 70 1015.1
20190626033041 69 0.0 0.0 0.00 0.60 0.60 71 1015.1
20190626032038 70 0.0 0.0 0.00 0.60 0.60 72 1014.9
20190626031034 70 0.0 0.0 0.00 0.60 0.60 72 1014.8
20190626030029 71 0.0 0.0 0.00 0.60 0.60 69 1014.9
20190626025025 71 0.0 0.0 0.00 0.60 0.60 69 1014.6
20190626024021 71 0.0 0.0 0.00 0.60 0.60 68 1014.6
20190626023016 71 0.0 0.0 0.00 0.60 0.60 69 1014.4
20190626014601 72 0.0 0.0 0.00 0.60 0.60 68 1014.0
20190626013547 72 0.0 0.0 0.00 0.60 0.60 68 1013.8
20190626012543 72 0.0 0.0 0.00 0.60 0.60 67 1013.5
20190626011540 73 0.0 0.0 0.00 0.60 0.60 67 1013.3
20190626010537 73 0.0 0.0 0.00 0.60 0.60 66 1013.4
20190626005523 74 0.0 0.0 0.00 0.60 0.60 64 1013.2
20190626003559 74 0.0 0.0 0.00 0.60 0.60 65 1012.9
20190626002553 74 0.0 0.0 0.00 0.60 0.60 65 1012.8
20190626001539 75 0.0 0.0 0.00 0.60 0.60 64 1012.8
20190626000600 75 0.0 0.0 0.00 0.60 0.60 64 1012.6
20190625235550 76 0.0 0.0 0.00 0.60 0.60 63 1012.4
20190625234541 76 0.0 0.0 0.00 0.60 0.60 63 1012.4
20190625233558 77 0.0 0.0 0.00 0.60 0.60 61 1012.3
20190625232548 77 0.0 0.0 0.00 0.60 0.60 61 1012.2
20190625231541 78 0.0 0.0 0.00 0.60 0.60 60 1012.1
20190625230534 79 0.0 0.0 0.00 0.60 0.60 58 1012.0
20190625225526 79 0.0 0.0 0.00 0.60 0.60 55 1011.7
20190625222557 81 0.0 0.0 0.00 0.60 0.60 49 1011.5
20190625221549 81 0.0 0.0 0.00 0.60 0.60 45 1011.3
20190625220544 82 0.0 1.0 0.00 0.60 0.60 46 1011.3
20190625215538 82 0.0 1.0 0.00 0.60 0.60 45 1011.4
20190625214534 82 0.0 3.0 0.00 0.61 0.60 44 1011.3
20190625213531 83 0.0 2.0 0.00 0.62 0.60 44 1011.3
20190625212526 83 0 0.0 2.0 0.00 0.62 0.60 45 1011.4
20190625211523 83 0.0 1.0 0.00 0.62 0.60 47 1011.5
20190625204556 83 45 0.0 3.0 0.00 0.62 0.60 52 1011.4
20190625203600 83 0.0 0.0 0.00 0.63 0.60 52 1011.3
20190625202548 83 225 0.0 3.0 0.00 0.66 0.60 52 1011.4
20190625201544 83 0.0 0.0 0.00 0.68 0.60 51 1011.4
20190625200540 83 26 0.0 4.0 0.00 0.68 0.60 50 1011.6
20190625195537 83 0.0 0.0 0.00 0.68 0.60 51 1011.5
20190625194533 84 0 0.0 7.0 0.00 0.68 0.60 51 1011.6
20190625193524 84 0.0 0.0 0.00 0.69 0.60 52 1011.6
20190625192516 84 315 0.0 3.0 0.00 0.69 0.60 53 1011.7
20190625184059 84 230 1.0 5.0 0.01 0.69 0.60 52 1011.5
20190625183056 83 11 0.0 3.0 0.01 0.69 0.60 54 1011.6
20190625182048 84 0.0 1.0 0.01 0.69 0.60 56 1011.7
20190625181044 83 0.0 1.0 0.01 0.69 0.60 56 1011.6
20190625180040 82 180 0.0 3.0 0.01 0.69 0.60 57 1011.6
20190625175036 82 351 0.0 3.0 0.00 0.68 0.59 59 1011.6
20190625173056 81 22 0.0 3.0 0.00 0.68 0.59 58 1011.8
20190625172052 81 315 0.0 3.0 0.00 0.68 0.59 62 1011.8
20190625171047 80 0.0 0.0 0.00 0.68 0.59 61 1011.8
20190625170041 80 225 0.0 2.0 0.00 0.68 0.59 62 1011.7
20190625165035 80 0.0 0.0 0.00 0.68 0.59 62 1011.9
20190625164032 80 0.0 0.0 0.00 0.68 0.59 61 1011.7
20190625163022 80 0.0 0.0 0.00 0.68 0.59 60 1011.8
20190625160559 79 0 1.0 5.0 0.00 0.68 0.59 62 1011.6
20190625155549 79 270 0.0 3.0 0.00 0.68 0.59 66 1011.5
20190625154545 79 90 0.0 3.0 0.00 0.68 0.59 68 1011.7
20190625153547 78 90 0.0 3.0 0.00 0.68 0.59 72 1011.7
20190625152533 77 0.0 0.0 0.00 0.68 0.59 73 1011.7
20190625151526 77 0.0 0.0 0.00 0.68 0.59 74 1011.6
20190625150520 77 0.0 0.0 0.00 0.68 0.59 72 1011.6
20190625145516 76 70 0.0 3.0 0.00 0.68 0.59 73 1011.3
20190625142559 76 0.0 0.0 0.00 0.68 0.59 73 1011.1
20190625141551 76 0.0 1.0 0.00 0.68 0.59 71 1011.0
20190625140544 76 233 2.0 6.0 0.00 0.68 0.59 70 1010.9
20190625135538 76 270 0.0 5.0 0.00 0.68 0.59 72 1010.8
20190625134533 75 64 0.0 3.0 0.00 0.68 0.59 75 1010.8
20190625133529 74 0.0 0.0 0.00 0.68 0.59 77 1010.8
20190625132524 74 330 0.0 4.0 0.00 0.68 0.59 78 1010.7
20190625131518 73 8 0.0 7.0 0.00 0.68 0.59 82 1010.8
20190625123601 71 0.0 1.0 0.00 0.68 0.59 88 1010.2
20190625122547 71 0.0 0.0 0.00 0.68 0.59 86 1010.1
20190625121538 71 0.0 1.0 0.00 0.68 0.59 84 1009.9
20190625120541 71 90 0.0 4.0 0.00 0.68 0.59 85 1009.7
20190625115527 70 65 0.0 4.0 0.00 0.68 0.59 86 1009.6
20190625114523 70 0.0 0.0 0.00 0.68 0.59 86 1009.3
20190625113517 70 229 2.0 8.0 0.00 0.68 0.59 86 1009.1
20190625111559 70 28 0.0 3.0 0.00 0.68 0.59 88 1008.7
20190625110551 71 149 0.0 3.0 0.00 0.68 0.59 89 1008.8
20190625105547 71 178 1.0 3.0 0.00 0.68 0.59 90 1008.6
20190625104542 71 59 0.0 4.0 0.00 0.68 0.59 91 1008.3
20190625103536 71 45 0.0 4.0 0.00 0.68 0.59 92 1008.1
20190625102528 71 270 0.0 4.0 0.00 0.68 0.59 93 1008.2
20190625101519 71 225 0.0 2.0 0.00 0.68 0.59 94 1008.1
20190625095104 71 270 0.0 3.0 0.00 0.68 0.59 95 1007.5
20190625094049 71 0.0 1.0 0.00 0.68 0.59 95 1007.5
20190625093040 71 0.0 0.0 0.00 0.68 0.59 95 1007.3
20190625092029 71 0.0 1.0 0.00 0.68 0.59 95 1007.0
20190625091020 71 180 0.0 2.0 0.00 0.68 0.59 95 1007.0
20190625084052 71 203 0.0 3.0 0.00 0.68 0.59 95 1006.9
20190625083044 71 225 0.0 2.0 0.00 0.68 0.59 95 1007.0
20190625082034 71 0.0 0.0 0.00 0.68 0.59 95 1006.9
20190625081027 71 172 0.0 3.0 0.00 0.68 0.59 95 1006.7
20190625080022 71 0.0 0.0 0.00 0.68 0.59 95 1006.6
20190625075016 71 0.0 0.0 0.00 0.68 0.59 95 1006.7
20190625072059 71 0.0 0.0 0.02 0.68 0.59 95 1007.4
20190625071051 71 0.0 0.0 0.04 0.68 0.59 94 1007.2
20190625070045 71 0.0 0.0 0.08 0.68 0.59 94 1006.9
20190625065038 71 0.0 0.0 0.11 0.68 0.59 94 1007.1
20190625063552 71 0.0 1.0 0.12 0.67 0.57 94 1007.2
20190625062546 71 0.0 1.0 0.12 0.66 0.56 94 1007.5
20190625061538 71 327 0.0 3.0 0.21 0.64 0.55 94 1007.4
20190625060529 71 45 0.0 3.0 0.34 0.62 0.53 93 1007.5
20190625055521 71 282 1.0 5.0 0.49 0.59 0.49 93 1007.3
20190625053058 71 209 0.0 4.0 0.43 0.53 0.43 93 1007.2
20190625052049 71 228 1.0 7.0 0.40 0.49 0.40 93 1007.7
20190625051042 71 223 1.0 7.0 0.24 0.34 0.24 93 1007.7
20190625050036 70 0.0 0.0 0.01 0.10 0.01 93 1007.4
20190625045030 70 0.0 0.0 0.00 0.09 0.00 93 1007.2
20190625044022 71 0.0 1.0 0.00 0.09 0.00 93 1007.3